createdAt,value
2023-04-26T00:00:26.227Z,2170.00
2023-04-26T00:01:26.229Z,2148.00
2023-04-26T00:02:26.354Z,2121.00
2023-04-26T00:03:26.367Z,2192.00
2023-04-26T00:04:26.421Z,2220.00
2023-04-26T00:05:26.402Z,2254.00
2023-04-26T00:06:26.293Z,2212.00
2023-04-26T00:07:26.312Z,2136.00
2023-04-26T00:08:26.325Z,2162.00
2023-04-26T00:09:26.342Z,2145.00
2023-04-26T00:10:26.356Z,2155.00
2023-04-26T00:11:26.374Z,2168.00
2023-04-26T00:12:26.382Z,2170.00
2023-04-26T00:13:26.404Z,2165.00
2023-04-26T00:14:26.388Z,2153.00
2023-04-26T00:15:26.416Z,2154.00
2023-04-26T00:16:26.475Z,2137.00
2023-04-26T00:17:26.434Z,2096.00
2023-04-26T00:18:26.427Z,2117.00
2023-04-26T00:19:26.449Z,2105.00
2023-04-26T00:20:26.461Z,2112.00
2023-04-26T00:21:26.478Z,2120.00
2023-04-26T00:22:26.490Z,2101.00
2023-04-26T00:23:26.528Z,2046.00
2023-04-26T00:24:26.532Z,2011.00
2023-04-26T00:25:26.544Z,2057.00
2023-04-26T00:26:26.539Z,2050.00
2023-04-26T00:27:26.564Z,2074.00
2023-04-26T00:28:26.582Z,2055.00
2023-04-26T00:29:26.569Z,2109.00
2023-04-26T00:30:26.584Z,2071.00
2023-04-26T00:31:26.659Z,2086.00
2023-04-26T00:32:26.621Z,2065.00
2023-04-26T00:33:26.616Z,2062.00
2023-04-26T00:34:26.641Z,2020.00
2023-04-26T00:35:26.652Z,2061.00
2023-04-26T00:36:26.655Z,2035.00
2023-04-26T00:37:26.705Z,2018.00
2023-04-26T00:38:26.671Z,2009.00
2023-04-26T00:39:26.712Z,2054.00
2023-04-26T00:40:26.696Z,2071.00
2023-04-26T00:41:26.689Z,2066.00
2023-04-26T00:42:26.708Z,2085.00
2023-04-26T00:43:26.726Z,2068.00
2023-04-26T00:44:26.723Z,2061.00
2023-04-26T00:45:26.803Z,2050.00
2023-04-26T00:46:26.853Z,2071.00
2023-04-26T00:47:26.770Z,2089.00
2023-04-26T00:48:26.771Z,2056.00
2023-04-26T00:49:26.797Z,2067.00
2023-04-26T00:50:26.794Z,2103.00
2023-04-26T00:51:26.819Z,2080.00
2023-04-26T00:52:26.813Z,2081.00
2023-04-26T00:53:26.847Z,2099.00
2023-04-26T00:54:26.856Z,2102.00
2023-04-26T00:55:26.925Z,2105.00
2023-04-26T00:56:26.889Z,2096.00
2023-04-26T00:57:26.892Z,2097.00
2023-04-26T00:58:26.906Z,2075.00
2023-04-26T00:59:26.927Z,2085.00
2023-04-26T01:00:26.918Z,2122.00
2023-04-26T01:33:08.085Z,500.00
2023-04-26T01:34:07.775Z,500.00
2023-04-26T01:35:07.992Z,500.00
2023-04-26T01:36:07.780Z,500.00
2023-04-26T01:37:07.776Z,500.00
2023-04-26T01:38:07.745Z,500.00
2023-04-26T01:39:07.742Z,500.00
2023-04-26T01:40:07.993Z,500.00
2023-04-26T01:41:07.749Z,504.00
2023-04-26T01:42:07.733Z,501.00
2023-04-26T01:43:07.728Z,502.00
2023-04-26T01:44:07.733Z,504.00
2023-04-26T01:45:08.006Z,500.00
2023-04-26T01:46:07.714Z,502.00
2023-04-26T01:47:07.699Z,502.00
2023-04-26T01:48:07.742Z,504.00
2023-04-26T01:49:07.692Z,502.00
2023-04-26T01:50:08.003Z,503.00
2023-04-26T01:51:07.676Z,500.00
2023-04-26T01:52:07.656Z,509.00
2023-04-26T01:53:07.663Z,504.00
2023-04-26T01:54:07.667Z,504.00
2023-04-26T01:55:08.006Z,500.00
2023-04-26T01:56:07.644Z,500.00
2023-04-26T01:57:07.647Z,516.00
2023-04-26T01:58:07.611Z,512.00
2023-04-26T01:59:07.634Z,510.00
2023-04-26T02:00:08.014Z,501.00
2023-04-26T02:01:07.627Z,507.00
2023-04-26T02:02:07.716Z,503.00
2023-04-26T02:03:07.749Z,501.00
2023-04-26T02:04:07.572Z,510.00
2023-04-26T02:05:07.582Z,516.00
2023-04-26T02:06:07.559Z,498.00
2023-04-26T02:07:07.551Z,503.00
2023-04-26T02:08:07.557Z,527.00
2023-04-26T02:09:07.549Z,551.00
2023-04-26T02:10:07.525Z,543.00
2023-04-26T02:11:07.558Z,528.00
2023-04-26T02:12:07.549Z,542.00
2023-04-26T02:13:07.528Z,543.00
2023-04-26T02:14:07.545Z,510.00
2023-04-26T02:15:07.525Z,532.00
2023-04-26T02:16:07.551Z,534.00
2023-04-26T02:17:07.492Z,516.00
2023-04-26T02:18:07.509Z,507.00
2023-04-26T02:19:07.472Z,528.00
2023-04-26T02:20:07.471Z,539.00
2023-04-26T02:21:07.499Z,542.00
2023-04-26T02:22:07.475Z,546.00
2023-04-26T02:23:07.474Z,537.00
2023-04-26T02:24:07.480Z,543.00
2023-04-26T02:25:07.472Z,549.00
2023-04-26T02:26:07.418Z,528.00
2023-04-26T02:27:07.411Z,531.00
2023-04-26T02:28:07.398Z,542.00
2023-04-26T02:29:07.406Z,534.00
2023-04-26T02:30:07.418Z,542.00
2023-04-26T02:31:07.418Z,529.00
2023-04-26T02:32:07.388Z,528.00
2023-04-26T02:33:07.455Z,534.00
2023-04-26T02:34:07.356Z,526.00
2023-04-26T02:35:07.369Z,551.00
2023-04-26T02:36:07.357Z,567.00
2023-04-26T02:37:07.406Z,560.00
2023-04-26T02:38:07.418Z,517.00
2023-04-26T02:39:07.336Z,512.00
2023-04-26T02:40:07.341Z,514.00
2023-04-26T02:41:07.320Z,539.00
2023-04-26T02:42:07.299Z,554.00
2023-04-26T02:43:07.307Z,555.00
2023-04-26T02:44:07.291Z,561.00
2023-04-26T02:45:07.286Z,560.00
2023-04-26T02:46:07.273Z,552.00
2023-04-26T02:47:07.304Z,567.00
2023-04-26T02:48:07.332Z,568.00
2023-04-26T02:49:07.271Z,569.00
2023-04-26T02:50:07.241Z,577.00
2023-04-26T02:51:07.257Z,572.00
2023-04-26T02:52:07.227Z,569.00
2023-04-26T02:53:07.229Z,570.00
2023-04-26T02:54:07.228Z,581.00
2023-04-26T02:55:07.221Z,576.00
2023-04-26T02:56:07.211Z,563.00
2023-04-26T02:57:07.217Z,571.00
2023-04-26T02:58:07.184Z,577.00
2023-04-26T02:59:07.182Z,565.00
2023-04-26T03:00:07.205Z,569.00
2023-04-26T03:01:07.231Z,557.00
2023-04-26T03:02:07.230Z,560.00
2023-04-26T03:03:07.358Z,562.00
2023-04-26T03:04:07.313Z,559.00
2023-04-26T03:05:07.231Z,564.00
2023-04-26T03:06:07.296Z,568.00
2023-04-26T03:07:07.281Z,570.00
2023-04-26T03:08:07.276Z,581.00
2023-04-26T03:09:07.401Z,583.00
2023-04-26T03:10:07.304Z,561.00
2023-04-26T03:11:07.315Z,569.00
2023-04-26T03:12:07.344Z,580.00
2023-04-26T03:13:07.349Z,580.00
2023-04-26T03:14:07.378Z,578.00
2023-04-26T03:15:07.420Z,546.00
2023-04-26T03:16:07.470Z,550.00
2023-04-26T03:17:07.471Z,563.00
2023-04-26T03:18:07.548Z,566.00
2023-04-26T03:19:07.496Z,571.00
2023-04-26T03:20:07.524Z,569.00
2023-04-26T03:21:07.549Z,573.00
2023-04-26T03:22:07.538Z,577.00
2023-04-26T03:23:07.577Z,579.00
2023-04-26T03:24:07.618Z,578.00
2023-04-26T03:25:07.641Z,553.00
2023-04-26T03:26:07.658Z,562.00
2023-04-26T03:27:07.679Z,539.00
2023-04-26T03:28:07.683Z,535.00
2023-04-26T03:29:07.705Z,527.00
2023-04-26T03:30:07.698Z,540.00
2023-04-26T03:31:07.703Z,567.00
2023-04-26T03:32:07.790Z,568.00
2023-04-26T03:33:07.985Z,571.00
2023-04-26T03:34:07.789Z,568.00
2023-04-26T03:35:07.805Z,573.00
2023-04-26T03:36:07.800Z,565.00
2023-04-26T03:37:07.852Z,568.00
2023-04-26T03:38:07.860Z,575.00
2023-04-26T03:39:07.887Z,575.00
2023-04-26T03:40:07.885Z,571.00
2023-04-26T03:41:07.913Z,578.00
2023-04-26T03:42:07.928Z,579.00
2023-04-26T03:43:07.972Z,564.00
2023-04-26T03:44:07.966Z,532.00
2023-04-26T03:45:07.993Z,554.00
2023-04-26T03:46:08.046Z,560.00
2023-04-26T03:47:08.034Z,568.00
2023-04-26T03:48:08.084Z,577.00
2023-04-26T03:49:08.062Z,577.00
2023-04-26T03:50:08.093Z,581.00
2023-04-26T03:51:08.114Z,575.00
2023-04-26T03:52:08.118Z,568.00
2023-04-26T03:53:08.150Z,546.00
2023-04-26T03:54:08.167Z,566.00
2023-04-26T03:55:08.201Z,577.00
2023-04-26T03:56:08.222Z,590.00
2023-04-26T03:57:08.232Z,591.00
2023-04-26T03:58:08.395Z,602.00
2023-04-26T03:59:08.294Z,603.00
2023-04-26T04:00:08.299Z,585.00
2023-04-26T04:01:08.328Z,584.00
2023-04-26T04:02:08.416Z,598.00
2023-04-26T04:03:08.664Z,598.00
2023-04-26T04:04:08.692Z,587.00
2023-04-26T04:05:08.572Z,580.00
2023-04-26T04:06:08.410Z,592.00
2023-04-26T04:07:08.447Z,593.00
2023-04-26T04:08:08.470Z,574.00
2023-04-26T04:09:08.487Z,557.00
2023-04-26T04:10:08.479Z,562.00
2023-04-26T04:11:08.517Z,579.00
2023-04-26T04:12:08.529Z,583.00
2023-04-26T04:13:08.577Z,575.00
2023-04-26T04:14:08.595Z,594.00
2023-04-26T04:15:08.606Z,578.00
2023-04-26T04:16:08.691Z,590.00
2023-04-26T04:17:08.638Z,592.00
2023-04-26T04:18:08.707Z,597.00
2023-04-26T04:19:08.684Z,589.00
2023-04-26T04:20:08.720Z,592.00
2023-04-26T04:21:08.738Z,599.00
2023-04-26T04:22:08.762Z,605.00
2023-04-26T04:23:08.781Z,606.00
2023-04-26T04:24:08.796Z,607.00
2023-04-26T04:25:08.827Z,574.00
2023-04-26T04:26:08.851Z,585.00
2023-04-26T04:27:08.860Z,591.00
2023-04-26T04:28:08.883Z,595.00
2023-04-26T04:29:09.141Z,599.00
2023-04-26T04:30:08.909Z,603.00
2023-04-26T04:31:08.968Z,603.00
2023-04-26T04:32:08.959Z,605.00
2023-04-26T04:33:08.995Z,581.00
2023-04-26T04:34:09.009Z,578.00
2023-04-26T04:35:09.022Z,592.00
2023-04-26T04:36:09.041Z,591.00
2023-04-26T04:37:09.061Z,587.00
2023-04-26T04:38:09.068Z,596.00
2023-04-26T04:39:09.170Z,601.00
2023-04-26T04:40:11.416Z,609.00
2023-04-26T04:41:09.240Z,603.00
2023-04-26T04:42:09.274Z,605.00
2023-04-26T04:43:09.297Z,609.00
2023-04-26T04:44:09.305Z,612.00
2023-04-26T04:45:09.336Z,602.00
2023-04-26T04:46:11.289Z,610.00
2023-04-26T04:47:09.326Z,599.00
2023-04-26T04:48:09.384Z,603.00
2023-04-26T04:49:09.332Z,606.00
2023-04-26T04:50:09.326Z,599.00
2023-04-26T04:51:09.300Z,611.00
2023-04-26T04:52:09.288Z,610.00
2023-04-26T04:53:09.303Z,615.00
2023-04-26T04:54:09.286Z,616.00
2023-04-26T04:55:09.270Z,615.00
2023-04-26T04:56:09.280Z,614.00
2023-04-26T04:57:09.274Z,614.00
2023-04-26T04:58:09.248Z,625.00
2023-04-26T04:59:09.319Z,626.00
2023-04-26T05:00:09.578Z,624.00
2023-04-26T05:01:09.262Z,631.00
2023-04-26T05:02:09.275Z,613.00
2023-04-26T05:03:09.263Z,606.00
2023-04-26T05:04:09.385Z,611.00
2023-04-26T05:05:09.319Z,618.00
2023-04-26T05:06:09.195Z,631.00
2023-04-26T05:07:09.194Z,639.00
2023-04-26T05:08:09.229Z,650.00
2023-04-26T05:09:09.200Z,654.00
2023-04-26T05:10:09.190Z,662.00
2023-04-26T05:11:09.158Z,662.00
2023-04-26T05:12:09.176Z,658.00
2023-04-26T05:13:09.162Z,662.00
2023-04-26T05:14:09.133Z,668.00
2023-04-26T05:15:09.145Z,674.00
2023-04-26T05:16:09.172Z,672.00
2023-04-26T05:17:09.127Z,691.00
2023-04-26T05:18:09.175Z,702.00
2023-04-26T05:19:09.621Z,706.00
2023-04-26T05:20:09.091Z,706.00
2023-04-26T05:21:09.105Z,707.00
2023-04-26T05:22:09.094Z,703.00
2023-04-26T05:23:09.100Z,725.00
2023-04-26T05:24:09.102Z,730.00
2023-04-26T05:25:09.078Z,734.00
2023-04-26T05:26:09.082Z,744.00
2023-04-26T05:27:09.070Z,730.00
2023-04-26T05:28:09.051Z,672.00
2023-04-26T05:29:09.072Z,698.00
2023-04-26T05:30:09.042Z,740.00
2023-04-26T05:31:11.236Z,793.00
2023-04-26T05:32:09.196Z,802.00
2023-04-26T05:33:09.229Z,852.00
2023-04-26T05:34:09.179Z,901.00
2023-04-26T05:35:09.206Z,956.00
2023-04-26T05:36:09.244Z,1014.00
2023-04-26T05:37:09.197Z,886.00
2023-04-26T05:38:09.223Z,716.00
2023-04-26T05:39:09.266Z,651.00
2023-04-26T05:40:09.265Z,616.00
2023-04-26T05:41:09.321Z,592.00
2023-04-26T05:42:09.349Z,632.00
2023-04-26T05:43:09.379Z,640.00
2023-04-26T05:44:09.446Z,629.00
2023-04-26T05:45:09.484Z,626.00
2023-04-26T05:46:09.599Z,609.00
2023-04-26T05:47:09.607Z,603.00
2023-04-26T05:48:09.729Z,581.00
2023-04-26T05:49:09.728Z,573.00
2023-04-26T05:50:10.116Z,595.00
2023-04-26T05:51:09.849Z,660.00
2023-04-26T05:52:09.888Z,727.00
2023-04-26T05:53:09.944Z,888.00
2023-04-26T05:54:10.017Z,1112.00
2023-04-26T05:55:10.027Z,1192.00
2023-04-26T05:56:10.060Z,1150.00
2023-04-26T05:57:10.130Z,1216.00
2023-04-26T05:58:10.090Z,1184.00
2023-04-26T05:59:10.124Z,1166.00
2023-04-26T06:00:10.160Z,1219.00
2023-04-26T06:01:10.155Z,1298.00
2023-04-26T06:02:11.074Z,1333.00
2023-04-26T06:03:10.354Z,1395.00
2023-04-26T06:04:10.836Z,1434.00
2023-04-26T06:05:10.399Z,1479.00
2023-04-26T06:06:10.168Z,1482.00
2023-04-26T06:07:10.212Z,1545.00
2023-04-26T06:08:10.229Z,1503.00
2023-04-26T06:09:10.257Z,1453.00
2023-04-26T06:10:10.310Z,1490.00
2023-04-26T06:11:10.322Z,1478.00
2023-04-26T06:12:10.366Z,1475.00
2023-04-26T06:13:10.338Z,1563.00
2023-04-26T06:14:19.796Z,1594.00
2023-04-26T06:15:11.603Z,1596.00
2023-04-26T06:16:10.379Z,1616.00
2023-04-26T06:17:10.389Z,1692.00
2023-04-26T06:18:10.410Z,1751.00
2023-04-26T06:19:10.394Z,1973.00
2023-04-26T06:20:10.622Z,1997.00
2023-04-26T06:21:10.363Z,1957.00
2023-04-26T06:22:10.342Z,1955.00
2023-04-26T06:23:10.401Z,2011.00
2023-04-26T06:24:10.468Z,2170.00
2023-04-26T06:25:10.605Z,2290.00
2023-04-26T06:26:10.548Z,2377.00
2023-04-26T06:27:10.619Z,2340.00
2023-04-26T06:28:10.676Z,2281.00
2023-04-26T06:29:10.753Z,2207.00
2023-04-26T06:30:11.105Z,2111.00
2023-04-26T06:31:10.935Z,2052.00
2023-04-26T06:32:10.911Z,1661.00
2023-04-26T06:33:10.965Z,1287.00
2023-04-26T06:34:10.968Z,1086.00
2023-04-26T06:35:11.138Z,912.00
2023-04-26T06:36:10.950Z,903.00
2023-04-26T06:37:10.951Z,932.00
2023-04-26T06:38:10.955Z,974.00
2023-04-26T06:39:10.966Z,1055.00
2023-04-26T06:40:11.141Z,1177.00
2023-04-26T06:41:11.095Z,1258.00
2023-04-26T06:42:11.053Z,1351.00
2023-04-26T06:43:11.008Z,1430.00
2023-04-26T06:44:11.012Z,1460.00
2023-04-26T06:45:11.144Z,1514.00
2023-04-26T06:46:11.106Z,1549.00
2023-04-26T06:47:11.029Z,1559.00
2023-04-26T06:48:11.126Z,1623.00
2023-04-26T06:49:11.093Z,1644.00
2023-04-26T06:50:11.140Z,1577.00
2023-04-26T06:51:11.211Z,1578.00
2023-04-26T06:52:11.239Z,1648.00
2023-04-26T06:53:11.330Z,1712.00
2023-04-26T06:54:11.369Z,1740.00
2023-04-26T06:55:11.450Z,1748.00
2023-04-26T06:56:11.511Z,1792.00
2023-04-26T06:57:11.579Z,1821.00
2023-04-26T06:58:11.626Z,1862.00
2023-04-26T06:59:11.665Z,1903.00
2023-04-26T07:00:11.738Z,1902.00
2023-04-26T07:01:11.820Z,1907.00
2023-04-26T07:02:12.794Z,1901.00
2023-04-26T07:03:12.044Z,1892.00
2023-04-26T07:04:12.122Z,1899.00
2023-04-26T07:05:12.239Z,1862.00
2023-04-26T07:06:12.052Z,1856.00
2023-04-26T07:07:13.671Z,1886.00
2023-04-26T07:08:12.152Z,1866.00
2023-04-26T07:09:12.362Z,1835.00
2023-04-26T07:10:12.255Z,1846.00
2023-04-26T07:11:12.339Z,1838.00
2023-04-26T07:12:12.382Z,1802.00
2023-04-26T07:13:12.433Z,1798.00
2023-04-26T07:14:12.479Z,1781.00
2023-04-26T07:15:12.524Z,1773.00
2023-04-26T07:16:12.612Z,1772.00
2023-04-26T07:17:12.624Z,1656.00
2023-04-26T07:18:12.687Z,1593.00
2023-04-26T07:19:12.719Z,1579.00
2023-04-26T07:20:13.147Z,1602.00
2023-04-26T07:21:12.800Z,1597.00
2023-04-26T07:22:12.864Z,1609.00
2023-04-26T07:23:12.896Z,1600.00
2023-04-26T07:24:12.934Z,1588.00
2023-04-26T07:25:13.234Z,1598.00
2023-04-26T07:26:13.025Z,1547.00
2023-04-26T07:27:13.080Z,1523.00
2023-04-26T07:28:13.137Z,1502.00
2023-04-26T07:29:13.172Z,1280.00
2023-04-26T07:30:13.676Z,791.00
2023-04-26T07:31:13.263Z,559.00
2023-04-26T07:32:13.394Z,580.00
2023-04-26T07:33:13.489Z,650.00
2023-04-26T07:34:13.458Z,826.00
2023-04-26T07:35:13.652Z,959.00
2023-04-26T07:36:13.590Z,1007.00
2023-04-26T07:37:13.647Z,1131.00
2023-04-26T07:38:13.701Z,1210.00
2023-04-26T07:39:13.772Z,1264.00
2023-04-26T07:40:14.165Z,1334.00
2023-04-26T07:41:13.913Z,1387.00
2023-04-26T07:42:13.944Z,1463.00
2023-04-26T07:43:13.950Z,1357.00
2023-04-26T07:44:14.022Z,1249.00
2023-04-26T07:45:14.076Z,1345.00
2023-04-26T07:46:14.136Z,1336.00
2023-04-26T07:47:14.163Z,1331.00
2023-04-26T07:48:14.216Z,1305.00
2023-04-26T07:49:14.232Z,1332.00
2023-04-26T07:50:14.678Z,1366.00
2023-04-26T07:51:14.302Z,1372.00
2023-04-26T07:52:14.324Z,1358.00
2023-04-26T07:53:14.367Z,1373.00
2023-04-26T07:54:14.419Z,1388.00
2023-04-26T07:55:16.499Z,1426.00
2023-04-26T07:56:14.444Z,1523.00
2023-04-26T07:57:14.416Z,1536.00
2023-04-26T07:58:14.426Z,1534.00
2023-04-26T07:59:14.411Z,1541.00
2023-04-26T08:00:14.655Z,1519.00
2023-04-26T08:01:15.762Z,1491.00
2023-04-26T08:02:14.516Z,1491.00
2023-04-26T08:03:14.623Z,1483.00
2023-04-26T08:04:14.716Z,1494.00
2023-04-26T08:05:14.599Z,1504.00
2023-04-26T08:06:14.566Z,1517.00
2023-04-26T08:07:14.463Z,1504.00
2023-04-26T08:08:14.868Z,1395.00
2023-04-26T08:09:14.515Z,1381.00
2023-04-26T08:10:14.541Z,1404.00
2023-04-26T08:11:14.554Z,1472.00
2023-04-26T08:12:14.657Z,1465.00
2023-04-26T08:13:14.643Z,1362.00
2023-04-26T08:14:14.650Z,1302.00
2023-04-26T08:15:15.203Z,1315.00
2023-04-26T08:16:14.712Z,1294.00
2023-04-26T08:17:14.895Z,1329.00
2023-04-26T08:18:14.734Z,1318.00
2023-04-26T08:19:14.772Z,1316.00
2023-04-26T08:20:14.800Z,1318.00
2023-04-26T08:21:14.809Z,1356.00
2023-04-26T08:22:14.818Z,1193.00
2023-04-26T08:23:14.860Z,986.00
2023-04-26T08:24:14.933Z,1171.00
2023-04-26T08:25:14.941Z,1042.00
2023-04-26T08:26:14.966Z,634.00
2023-04-26T08:27:15.010Z,445.00
2023-04-26T08:28:15.039Z,400.00
2023-04-26T08:29:15.092Z,400.00
2023-04-26T08:30:15.135Z,400.00
2023-04-26T08:31:17.518Z,400.00
2023-04-26T08:32:15.351Z,400.00
2023-04-26T08:33:15.390Z,400.00
2023-04-26T08:34:15.458Z,400.00
2023-04-26T08:35:15.525Z,442.00
2023-04-26T08:36:15.664Z,538.00
2023-04-26T08:37:15.606Z,589.00
2023-04-26T08:38:15.618Z,712.00
2023-04-26T08:39:15.648Z,910.00
2023-04-26T08:40:15.693Z,1036.00
2023-04-26T08:41:16.164Z,1140.00
2023-04-26T08:42:15.751Z,1287.00
2023-04-26T08:43:15.794Z,1259.00
2023-04-26T08:44:15.853Z,862.00
2023-04-26T08:45:15.886Z,557.00
2023-04-26T08:46:15.971Z,497.00
2023-04-26T08:47:15.950Z,400.00
2023-04-26T08:48:16.130Z,400.00
2023-04-26T08:49:15.984Z,400.00
2023-04-26T08:50:16.159Z,400.00
2023-04-26T08:51:16.185Z,400.00
2023-04-26T08:52:16.060Z,425.00
2023-04-26T08:53:16.106Z,429.00
2023-04-26T08:54:16.164Z,487.00
2023-04-26T08:55:16.205Z,500.00
2023-04-26T08:56:16.260Z,481.00
2023-04-26T08:57:16.330Z,496.00
2023-04-26T08:58:16.380Z,526.00
2023-04-26T08:59:16.422Z,456.00
2023-04-26T09:00:16.497Z,521.00
2023-04-26T09:01:16.624Z,538.00
2023-04-26T09:02:16.670Z,502.00
2023-04-26T09:03:16.773Z,510.00
2023-04-26T09:04:16.951Z,547.00
2023-04-26T09:05:17.027Z,530.00
2023-04-26T09:06:16.848Z,548.00
2023-04-26T09:07:16.895Z,565.00
2023-04-26T09:08:16.958Z,618.00
2023-04-26T09:09:17.005Z,497.00
2023-04-26T09:10:17.062Z,496.00
2023-04-26T09:11:17.123Z,502.00
2023-04-26T09:12:17.157Z,521.00
2023-04-26T09:13:17.252Z,496.00
2023-04-26T09:14:17.282Z,524.00
2023-04-26T09:15:17.337Z,650.00
2023-04-26T09:16:17.764Z,894.00
2023-04-26T09:17:17.406Z,1207.00
2023-04-26T09:18:17.438Z,2155.00
2023-04-26T09:19:17.438Z,2830.00
2023-04-26T09:20:17.454Z,2575.00
2023-04-26T09:21:17.694Z,2548.00
2023-04-26T09:22:17.446Z,2624.00
2023-04-26T09:23:17.466Z,2628.00
2023-04-26T09:24:17.501Z,2614.00
2023-04-26T09:25:17.518Z,2614.00
2023-04-26T09:26:17.691Z,2534.00
2023-04-26T09:27:17.549Z,2555.00
2023-04-26T09:28:17.588Z,2665.00
2023-04-26T09:29:17.639Z,2727.00
2023-04-26T09:30:17.730Z,2908.00
2023-04-26T09:31:18.207Z,2919.00
2023-04-26T09:32:17.801Z,3011.00
2023-04-26T09:33:17.910Z,3049.00
2023-04-26T09:34:18.017Z,3260.00
2023-04-26T09:35:17.997Z,3346.00
2023-04-26T09:36:18.054Z,3484.00
2023-04-26T09:37:18.120Z,3536.00
2023-04-26T09:38:18.252Z,3622.00
2023-04-26T09:39:18.229Z,3655.00
2023-04-26T09:40:18.246Z,3679.00
2023-04-26T09:41:18.686Z,3733.00
2023-04-26T09:42:18.370Z,3759.00
2023-04-26T09:43:18.406Z,3784.00
2023-04-26T09:44:18.463Z,3752.00
2023-04-26T09:45:18.502Z,3731.00
2023-04-26T09:46:18.552Z,3716.00
2023-04-26T09:47:18.570Z,3713.00
2023-04-26T09:48:18.631Z,3708.00
2023-04-26T09:49:18.664Z,3692.00
2023-04-26T09:50:18.802Z,3665.00
2023-04-26T09:51:18.741Z,3674.00
2023-04-26T09:52:18.805Z,3638.00
2023-04-26T09:53:18.860Z,3624.00
2023-04-26T09:54:18.877Z,3616.00
2023-04-26T09:55:31.175Z,3590.00
2023-04-26T09:56:20.212Z,3589.00
2023-04-26T09:57:18.918Z,3592.00
2023-04-26T09:58:18.900Z,3587.00
2023-04-26T09:59:18.893Z,3601.00
2023-04-26T10:00:18.910Z,3610.00
2023-04-26T10:01:18.925Z,3656.00
2023-04-26T10:02:18.906Z,3645.00
2023-04-26T10:03:19.078Z,3643.00
2023-04-26T10:04:18.931Z,3629.00
2023-04-26T10:05:18.860Z,3625.00
2023-04-26T10:06:18.852Z,3632.00
2023-04-26T10:07:18.862Z,3645.00
2023-04-26T10:08:18.903Z,3611.00
2023-04-26T10:09:18.943Z,3585.00
2023-04-26T10:10:19.063Z,3581.00
2023-04-26T10:11:19.026Z,3579.00
2023-04-26T10:12:19.064Z,3570.00
2023-04-26T10:13:19.119Z,3571.00
2023-04-26T10:14:19.159Z,3551.00
2023-04-26T10:15:19.206Z,3530.00
2023-04-26T10:16:19.280Z,3530.00
2023-04-26T10:17:19.284Z,3488.00
2023-04-26T10:18:19.305Z,3465.00
2023-04-26T10:19:19.359Z,3321.00
2023-04-26T10:20:19.409Z,2913.00
2023-04-26T10:21:19.711Z,1528.00
2023-04-26T10:22:19.505Z,865.00
2023-04-26T10:23:19.544Z,812.00
2023-04-26T10:24:19.567Z,461.00
2023-04-26T10:25:19.551Z,401.00
2023-04-26T10:26:19.699Z,461.00
2023-04-26T10:27:19.596Z,586.00
2023-04-26T10:28:19.592Z,552.00
2023-04-26T10:29:19.633Z,610.00
2023-04-26T10:30:19.651Z,572.00
2023-04-26T10:31:19.783Z,455.00
2023-04-26T10:32:19.746Z,503.00
2023-04-26T10:33:19.804Z,498.00
2023-04-26T10:34:19.798Z,400.00
2023-04-26T10:35:19.836Z,462.00
2023-04-26T10:36:20.224Z,565.00
2023-04-26T10:37:19.974Z,585.00
2023-04-26T10:38:19.961Z,613.00
2023-04-26T10:39:20.005Z,623.00
2023-04-26T10:40:20.051Z,599.00
2023-04-26T10:41:20.216Z,626.00
2023-04-26T10:42:20.968Z,629.00
2023-04-26T10:43:20.173Z,580.00
2023-04-26T10:44:20.193Z,592.00
2023-04-26T10:45:20.260Z,483.00
2023-04-26T10:46:20.323Z,483.00
2023-04-26T10:47:20.380Z,541.00
2023-04-26T10:48:20.390Z,571.00
2023-04-26T10:49:20.420Z,623.00
2023-04-26T10:50:20.477Z,754.00
2023-04-26T10:51:20.530Z,987.00
2023-04-26T10:52:20.594Z,1193.00
2023-04-26T10:53:20.601Z,1253.00
2023-04-26T10:54:20.670Z,1217.00
2023-04-26T10:55:20.700Z,1119.00
2023-04-26T10:56:20.732Z,973.00
2023-04-26T10:57:20.779Z,781.00
2023-04-26T10:58:20.824Z,574.00
2023-04-26T10:59:36.125Z,506.00
2023-04-26T11:00:21.880Z,507.00
2023-04-26T11:01:20.906Z,512.00
2023-04-26T11:02:20.849Z,540.00
2023-04-26T11:03:21.066Z,602.00
2023-04-26T11:04:20.960Z,664.00
2023-04-26T11:05:20.830Z,743.00
2023-04-26T11:06:20.811Z,689.00
2023-04-26T11:07:20.792Z,657.00
2023-04-26T11:08:20.792Z,655.00
2023-04-26T11:09:20.949Z,596.00
2023-04-26T11:10:20.831Z,516.00
2023-04-26T11:11:20.880Z,571.00
2023-04-26T11:12:20.931Z,554.00
2023-04-26T11:13:20.947Z,492.00
2023-04-26T11:14:20.981Z,499.00
2023-04-26T11:15:21.714Z,414.00
2023-04-26T11:16:21.139Z,481.00
2023-04-26T11:17:21.209Z,535.00
2023-04-26T11:18:21.266Z,504.00
2023-04-26T11:19:21.242Z,573.00
2023-04-26T11:20:21.265Z,603.00
2023-04-26T11:21:21.337Z,612.00
2023-04-26T11:22:21.389Z,620.00
2023-04-26T11:23:21.448Z,512.00
2023-04-26T11:24:21.526Z,494.00
2023-04-26T11:25:21.632Z,507.00
2023-04-26T11:26:21.653Z,483.00
2023-04-26T11:27:21.695Z,504.00
2023-04-26T11:28:21.771Z,542.00
2023-04-26T11:29:21.824Z,590.00
2023-04-26T11:30:21.880Z,594.00
2023-04-26T11:31:22.011Z,525.00
2023-04-26T11:32:22.018Z,495.00
2023-04-26T11:33:22.066Z,509.00
2023-04-26T11:34:22.133Z,488.00
2023-04-26T11:35:22.211Z,537.00
2023-04-26T11:36:22.258Z,521.00
2023-04-26T11:37:22.309Z,496.00
2023-04-26T11:38:22.389Z,512.00
2023-04-26T11:39:22.427Z,569.00
2023-04-26T11:40:22.479Z,590.00
2023-04-26T11:41:22.561Z,534.00
2023-04-26T11:42:22.632Z,554.00
2023-04-26T11:43:22.800Z,524.00
2023-04-26T11:44:22.742Z,514.00
2023-04-26T11:45:22.802Z,531.00
2023-04-26T11:46:22.879Z,497.00
2023-04-26T11:47:22.933Z,498.00
2023-04-26T11:48:23.039Z,600.00
2023-04-26T11:49:23.059Z,571.00
2023-04-26T11:50:23.102Z,526.00
2023-04-26T11:51:23.169Z,495.00
2023-04-26T11:52:23.216Z,569.00
2023-04-26T11:53:23.319Z,561.00
2023-04-26T11:54:23.352Z,580.00
2023-04-26T11:55:23.439Z,599.00
2023-04-26T11:56:23.512Z,576.00
2023-04-26T11:57:23.552Z,577.00
2023-04-26T11:58:23.621Z,593.00
2023-04-26T11:59:23.664Z,690.00
2023-04-26T12:00:23.722Z,656.00
2023-04-26T12:01:23.848Z,590.00
2023-04-26T12:02:23.938Z,615.00
2023-04-26T12:03:24.107Z,617.00
2023-04-26T12:04:24.160Z,648.00
2023-04-26T12:05:24.106Z,649.00
2023-04-26T12:06:24.244Z,627.00
2023-04-26T12:07:24.141Z,584.00
2023-04-26T12:08:24.205Z,609.00
2023-04-26T12:09:24.284Z,626.00
2023-04-26T12:10:24.312Z,662.00
2023-04-26T12:11:24.325Z,917.00
2023-04-26T12:12:24.417Z,1213.00
2023-04-26T12:13:24.423Z,1439.00
2023-04-26T12:14:24.486Z,1662.00
2023-04-26T12:15:24.575Z,1758.00
2023-04-26T12:16:26.772Z,1749.00
2023-04-26T12:17:24.725Z,1801.00
2023-04-26T12:18:24.612Z,1975.00
2023-04-26T12:19:24.593Z,2155.00
2023-04-26T12:20:24.623Z,2191.00
2023-04-26T12:21:24.583Z,2227.00
2023-04-26T12:22:24.553Z,2331.00
2023-04-26T12:23:24.562Z,2307.00
2023-04-26T12:24:24.558Z,2247.00
2023-04-26T12:25:24.598Z,2339.00
2023-04-26T12:26:24.560Z,2386.00
2023-04-26T12:27:24.554Z,2470.00
2023-04-26T12:28:24.533Z,2524.00
2023-04-26T12:29:24.567Z,2514.00
2023-04-26T12:30:24.500Z,2459.00
2023-04-26T12:31:24.517Z,2453.00
2023-04-26T12:32:24.501Z,2474.00
2023-04-26T12:33:24.506Z,2466.00
2023-04-26T12:34:24.478Z,2466.00
2023-04-26T12:35:24.488Z,2498.00
2023-04-26T12:36:24.471Z,2544.00
2023-04-26T12:37:24.476Z,2564.00
2023-04-26T12:38:24.452Z,2600.00
2023-04-26T12:39:24.463Z,2673.00
2023-04-26T12:40:24.444Z,2673.00
2023-04-26T12:41:24.453Z,2755.00
2023-04-26T12:42:24.444Z,2838.00
2023-04-26T12:43:24.455Z,2938.00
2023-04-26T12:44:24.413Z,3272.00
2023-04-26T12:45:24.535Z,3263.00
2023-04-26T12:46:24.442Z,3293.00
2023-04-26T12:47:24.436Z,3108.00
2023-04-26T12:48:24.400Z,3222.00
2023-04-26T12:49:24.406Z,3330.00
2023-04-26T12:50:24.383Z,3596.00